If you wish to contribute or participate in the discussions about articles you are invited to join SKYbrary as a registered user

 Actions

Strasbourg Airport

From SKYbrary Wiki

LFST
Airport
ICAO: LFST – IATA: SXB
Summary
Name Strasbourg Airport
Region Europe
Territory France FR.gif
Location , Alsace
Serving Strasbourg
Elevation 153.924 m
505 ft
505 ft153.924 m
Type medium airport
Coordinates 48° 32' 17.95" N, 7° 37' 41.64" E
Runways
Designator Length Width Surface ROPS
5/23 2400 m7,874.016 ft
45 m147.638 ft
ASP yes/yes


METAR
Observation LFST 240400Z AUTO 14002KT 6000 NSC M02/M03 Q1025 TEMPO 0400 FZFG VV///
Station Strasbourg
Date/Time 24 January 2020 04:00:00
Wind direction 140°
Wind speed 02 kts
Lowest cloud amount nil significant cloud
Temperature
Dew point
Humidity 92%
QNH 1025 hPa
Weather condition n/a